Time;durP1;ratioP1;P1;durP2;ratioP2;P2;SDS_P1;SDS_P2;PMS_P1;PMS_P2;Temp;Humidity;BMP_temperature;BMP_pressure;BME280_temperature;BME280_humidity;BME280_pressure;Samples;Min_cycle;Max_cycle;Signal;HPM_P1;HPM_P2
2021/04/12 00:00:48;;;;;;;2.40;2.20;;;;;;;;;;4960437;29;20207;-74
2021/04/12 00:03:21;;;;;;;2.20;2.10;;;;;;;;;;4958432;29;20177;-77
2021/04/12 00:06:05;;;;;;;2.70;2.35;;;;;;;;;;4941164;29;20261;-75
2021/04/12 00:08:49;;;;;;;2.10;1.90;;;;;;;;;;4924188;29;20584;-74
2021/04/12 00:11:29;;;;;;;2.88;2.33;;;;;;;;;;4923626;29;20180;-73
2021/04/12 00:13:55;;;;;;;2.83;2.53;;;;;;;;;;4941096;29;20255;-74
2021/04/12 00:16:24;;;;;;;1.67;1.57;;;;;;;;;;4941124;29;20629;-76
2021/04/12 00:18:56;;;;;;;1.60;1.50;;;;;;;;;;4941245;29;20482;-74
2021/04/12 00:21:26;;;;;;;2.00;1.90;;;;;;;;;;4937468;29;20201;-76
2021/04/12 00:23:52;;;;;;;2.60;2.40;;;;;;;;;;4938216;29;20264;-75
2021/04/12 00:26:28;;;;;;;2.67;2.47;;;;;;;;;;4937683;29;20197;-75
2021/04/12 00:28:57;;;;;;;2.80;2.60;;;;;;;;;;4937738;29;20426;-78
2021/04/12 00:31:39;;;;;;;2.28;2.10;;;;;;;;;;4937807;29;20176;-76
2021/04/12 00:34:25;;;;;;;2.67;2.47;;;;;;;;;;4937851;29;20205;-78
2021/04/12 00:37:02;;;;;;;2.67;2.47;;;;;;;;;;4937490;29;20176;-75
2021/04/12 00:39:37;;;;;;;2.75;2.55;;;;;;;;;;4937843;29;20704;-74
2021/04/12 00:42:22;;;;;;;3.70;3.40;;;;;;;;;;4937109;29;20647;-77
2021/04/12 00:44:55;;;;;;;2.47;2.28;;;;;;;;;;4937768;29;20170;-76
2021/04/12 00:47:31;;;;;;;2.70;2.50;;;;;;;;;;4920541;29;20275;-72
2021/04/12 00:50:29;;;;;;;3.17;2.60;;;;;;;;;;4937606;29;20503;-76
2021/04/12 00:53:14;;;;;;;2.75;2.55;;;;;;;;;;4905586;29;20227;-75
2021/04/12 00:55:49;;;;;;;3.15;2.60;;;;;;;;;;4936858;29;20208;-73
2021/04/12 00:58:24;;;;;;;2.55;2.35;;;;;;;;;;4956315;29;20329;-74
2021/04/12 01:01:04;;;;;;;2.78;2.58;;;;;;;;;;4956675;29;20552;-74
2021/04/12 01:03:42;;;;;;;2.78;2.58;;;;;;;;;;4960696;28;20500;-75
2021/04/12 01:06:08;;;;;;;2.55;2.40;;;;;;;;;;4975731;28;20190;-73
2021/04/12 01:08:37;;;;;;;3.87;2.60;;;;;;;;;;4968878;28;20215;-75
2021/04/12 01:11:03;;;;;;;3.10;2.80;;;;;;;;;;4955852;29;20416;-73
2021/04/12 01:13:44;;;;;;;3.60;2.47;;;;;;;;;;4955984;29;20180;-74
2021/04/12 01:16:29;;;;;;;2.90;2.70;;;;;;;;;;4938814;29;20931;-75
2021/04/12 01:19:15;;;;;;;3.17;2.90;;;;;;;;;;4956394;29;20211;-79
2021/04/12 01:21:54;;;;;;;3.20;2.90;;;;;;;;;;4917391;29;20199;-74
2021/04/12 01:24:41;;;;;;;3.13;2.83;;;;;;;;;;4956176;29;20242;-77
2021/04/12 01:27:25;;;;;;;3.42;3.13;;;;;;;;;;4955421;29;20168;-77
2021/04/12 01:30:10;;;;;;;3.50;3.20;;;;;;;;;;4956143;29;20168;-75
2021/04/12 01:32:49;;;;;;;4.15;3.40;;;;;;;;;;4955878;28;20180;-74
2021/04/12 01:35:34;;;;;;;5.20;3.65;;;;;;;;;;4955904;29;20591;-75
2021/04/12 01:38:29;;;;;;;4.40;3.78;;;;;;;;;;4955705;29;20605;-73
2021/04/12 01:40:58;;;;;;;3.10;2.85;;;;;;;;;;4939159;29;20215;-75
2021/04/12 01:43:30;;;;;;;4.13;3.83;;;;;;;;;;4955467;29;20184;-75
2021/04/12 01:45:56;;;;;;;3.75;3.40;;;;;;;;;;4955666;29;20175;-75
2021/04/12 01:48:40;;;;;;;3.80;3.50;;;;;;;;;;4956182;29;20168;-77
2021/04/12 01:51:21;;;;;;;4.95;4.55;;;;;;;;;;4956117;29;20446;-78
2021/04/12 01:53:56;;;;;;;3.53;3.22;;;;;;;;;;4955634;29;20211;-74
2021/04/12 01:56:28;;;;;;;3.75;3.45;;;;;;;;;;4950218;29;20235;-80
2021/04/12 01:59:06;;;;;;;3.85;3.55;;;;;;;;;;4936402;29;20191;-73
2021/04/12 02:01:38;;;;;;;3.53;3.22;;;;;;;;;;4919394;29;20296;-74
2021/04/12 02:04:23;;;;;;;3.67;3.38;;;;;;;;;;4944917;29;20252;-75
2021/04/12 02:06:49;;;;;;;3.75;3.45;;;;;;;;;;4955289;29;20173;-78
2021/04/12 02:09:25;;;;;;;3.93;3.40;;;;;;;;;;4955355;29;20198;-74
2021/04/12 02:12:04;;;;;;;3.92;3.58;;;;;;;;;;4955243;29;20787;-77
2021/04/12 02:14:36;;;;;;;3.50;3.20;;;;;;;;;;4955200;29;20274;-78
2021/04/12 02:17:13;;;;;;;3.55;3.25;;;;;;;;;;4955181;29;20168;-75
2021/04/12 02:19:43;;;;;;;3.47;3.17;;;;;;;;;;4955185;29;20227;-74
2021/04/12 02:22:11;;;;;;;3.22;2.92;;;;;;;;;;4954835;29;20615;-79
2021/04/12 02:24:37;;;;;;;4.68;4.28;;;;;;;;;;4955100;29;20299;-76
2021/04/12 02:27:13;;;;;;;2.60;2.40;;;;;;;;;;4937630;29;20292;-78
2021/04/12 02:29:59;;;;;;;4.47;4.07;;;;;;;;;;4955091;29;20430;-78
2021/04/12 02:32:43;;;;;;;3.95;3.40;;;;;;;;;;4954762;29;20198;-81
2021/04/12 02:35:09;;;;;;;4.10;3.20;;;;;;;;;;4954748;29;20211;-78
2021/04/12 02:37:59;;;;;;;3.40;3.10;;;;;;;;;;4955447;29;20646;-76
2021/04/12 02:40:37;;;;;;;3.78;3.47;;;;;;;;;;4954418;29;20439;-75
2021/04/12 02:43:04;;;;;;;2.92;2.70;;;;;;;;;;4954024;28;20655;-79
2021/04/12 02:45:35;;;;;;;3.65;3.35;;;;;;;;;;4954940;29;20187;-76
2021/04/12 02:48:13;;;;;;;3.38;3.08;;;;;;;;;;4954943;29;20176;-76
2021/04/12 02:50:58;;;;;;;4.38;3.33;;;;;;;;;;4954735;29;20180;-79
2021/04/12 02:53:27;;;;;;;4.05;3.40;;;;;;;;;;4954661;29;20235;-76
2021/04/12 02:55:56;;;;;;;3.58;3.33;;;;;;;;;;4953880;28;20175;-76
2021/04/12 02:58:25;;;;;;;4.35;3.95;;;;;;;;;;4954426;29;20192;-75
2021/04/12 03:00:54;;;;;;;5.13;4.10;;;;;;;;;;4954652;29;20232;-78
2021/04/12 03:03:39;;;;;;;5.28;4.45;;;;;;;;;;4934717;29;20250;-78
2021/04/12 03:06:23;;;;;;;4.28;3.88;;;;;;;;;;4945906;29;20176;-78
2021/04/12 03:08:57;;;;;;;5.30;4.45;;;;;;;;;;4954514;29;20180;-77
2021/04/12 03:11:41;;;;;;;4.30;3.90;;;;;;;;;;4954044;29;20165;-76
2021/04/12 03:14:21;;;;;;;4.53;4.13;;;;;;;;;;4954015;29;20304;-76
2021/04/12 03:17:06;;;;;;;4.60;4.15;;;;;;;;;;4954390;29;20171;-76
2021/04/12 03:19:32;;;;;;;4.07;3.78;;;;;;;;;;4954585;29;20183;-79
2021/04/12 03:22:09;;;;;;;4.67;4.27;;;;;;;;;;4954206;29;20567;-73
2021/04/12 03:24:47;;;;;;;4.78;4.30;;;;;;;;;;4960044;29;20902;-74
2021/04/12 03:27:13;;;;;;;5.07;4.63;;;;;;;;;;4958604;29;20631;-78
2021/04/12 03:29:58;;;;;;;4.38;3.97;;;;;;;;;;4936426;29;20219;-79
2021/04/12 03:32:47;;;;;;;3.83;3.53;;;;;;;;;;4943823;28;20185;-81
2021/04/12 03:35:23;;;;;;;4.20;3.80;;;;;;;;;;4935081;29;20212;-79
2021/04/12 03:37:56;;;;;;;8.95;4.07;;;;;;;;;;4935542;29;20176;-80
2021/04/12 03:40:33;;;;;;;4.28;3.88;;;;;;;;;;4935164;29;20176;-79
2021/04/12 03:43:19;;;;;;;3.90;3.55;;;;;;;;;;4935313;29;20199;-74
2021/04/12 03:45:51;;;;;;;5.00;4.18;;;;;;;;;;4935271;29;20181;-76
2021/04/12 03:48:36;;;;;;;3.67;3.38;;;;;;;;;;4935210;29;20184;-77
2021/04/12 03:51:11;;;;;;;4.63;4.22;;;;;;;;;;4935293;29;20169;-75
2021/04/12 03:53:36;;;;;;;5.07;4.57;;;;;;;;;;4935158;29;20169;-74
2021/04/12 03:56:26;;;;;;;5.90;5.27;;;;;;;;;;4919619;29;20180;-79
2021/04/12 03:59:21;;;;;;;5.90;4.90;;;;;;;;;;4911374;29;20454;-73
2021/04/12 04:01:47;;;;;;;7.00;4.18;;;;;;;;;;4887718;29;20199;-79
2021/04/12 04:04:32;;;;;;;4.47;4.07;;;;;;;;;;4948663;29;20182;-75
2021/04/12 04:07:04;;;;;;;4.82;4.30;;;;;;;;;;4957925;29;20466;-74
2021/04/12 04:09:33;;;;;;;5.47;5.00;;;;;;;;;;4957707;29;20575;-73
2021/04/12 04:12:06;;;;;;;5.93;4.82;;;;;;;;;;4957278;29;20247;-74
2021/04/12 04:14:34;;;;;;;5.35;4.43;;;;;;;;;;4957644;29;20606;-77
2021/04/12 04:17:06;;;;;;;4.80;4.20;;;;;;;;;;4957394;29;20536;-74
2021/04/12 04:19:51;;;;;;;5.50;5.00;;;;;;;;;;4957626;29;20207;-74
2021/04/12 04:22:36;;;;;;;6.00;4.05;;;;;;;;;;4957247;29;20164;-74
2021/04/12 04:25:20;;;;;;;4.75;4.35;;;;;;;;;;4957290;29;20255;-75
2021/04/12 04:27:49;;;;;;;6.28;4.85;;;;;;;;;;4939820;29;20184;-74
2021/04/12 04:30:15;;;;;;;5.05;3.90;;;;;;;;;;4957088;29;20275;-73
2021/04/12 04:33:03;;;;;;;3.90;3.60;;;;;;;;;;4957224;29;20556;-74
2021/04/12 04:35:43;;;;;;;5.68;5.10;;;;;;;;;;4957308;29;20225;-75
2021/04/12 04:38:32;;;;;;;6.65;5.00;;;;;;;;;;4956986;29;20183;-74
2021/04/12 04:41:17;;;;;;;5.40;4.72;;;;;;;;;;4956889;29;20238;-76
2021/04/12 04:44:02;;;;;;;6.20;5.60;;;;;;;;;;4957116;29;20191;-73
2021/04/12 04:46:53;;;;;;;7.30;4.95;;;;;;;;;;4956682;29;20184;-73
2021/04/12 04:49:34;;;;;;;7.68;4.97;;;;;;;;;;4920370;29;20559;-75
2021/04/12 04:52:10;;;;;;;4.97;4.45;;;;;;;;;;4956963;29;20211;-77
2021/04/12 04:54:54;;;;;;;4.82;4.32;;;;;;;;;;4956676;29;20203;-76
2021/04/12 04:57:41;;;;;;;5.57;3.53;;;;;;;;;;4956023;28;20255;-79
2021/04/12 05:00:26;;;;;;;4.35;3.85;;;;;;;;;;4957080;29;20271;-76
2021/04/12 05:03:11;;;;;;;4.05;3.75;;;;;;;;;;4956780;29;20623;-75
2021/04/12 05:05:37;;;;;;;5.13;3.38;;;;;;;;;;4946108;28;20199;-75
2021/04/12 05:08:23;;;;;;;4.17;3.80;;;;;;;;;;4962321;29;20627;-74
2021/04/12 05:10:58;;;;;;;4.32;3.90;;;;;;;;;;4962765;29;20443;-78
2021/04/12 05:13:44;;;;;;;3.50;2.90;;;;;;;;;;4956461;29;20286;-76
2021/04/12 05:16:28;;;;;;;4.03;3.50;;;;;;;;;;4956259;29;20190;-76
2021/04/12 05:19:10;;;;;;;3.35;3.05;;;;;;;;;;4939333;29;20278;-76
2021/04/12 05:21:54;;;;;;;3.30;2.92;;;;;;;;;;4939124;29;20231;-76
2021/04/12 05:24:25;;;;;;;3.38;2.95;;;;;;;;;;4939198;29;20189;-75
2021/04/12 05:27:19;;;;;;;3.45;2.50;;;;;;;;;;4955695;29;20187;-77
2021/04/12 05:29:48;;;;;;;4.38;3.38;;;;;;;;;;4956176;29;20190;-77
2021/04/12 05:32:17;;;;;;;6.55;4.25;;;;;;;;;;4951772;28;20755;-74
2021/04/12 05:35:02;;;;;;;4.00;3.60;;;;;;;;;;4938123;29;20247;-76
2021/04/12 05:37:47;;;;;;;3.75;3.45;;;;;;;;;;4955809;29;20176;-76
2021/04/12 05:40:17;;;;;;;4.90;4.00;;;;;;;;;;4937310;29;20227;-79
2021/04/12 05:42:55;;;;;;;6.53;3.97;;;;;;;;;;4936874;29;20181;-76
2021/04/12 05:45:27;;;;;;;4.25;3.58;;;;;;;;;;4937825;29;20172;-74
2021/04/12 05:48:12;;;;;;;5.53;4.40;;;;;;;;;;4938004;29;20251;-76
2021/04/12 05:50:55;;;;;;;3.92;3.20;;;;;;;;;;4936963;29;20176;-80
2021/04/12 05:53:41;;;;;;;3.85;3.53;;;;;;;;;;4943903;29;20172;-76
2021/04/12 05:56:07;;;;;;;3.30;3.00;;;;;;;;;;4937104;29;20231;-75
2021/04/12 05:58:32;;;;;;;4.90;3.70;;;;;;;;;;4939913;29;20194;-74
2021/04/12 06:01:17;;;;;;;4.37;3.97;;;;;;;;;;4945453;29;20500;-78
2021/04/12 06:03:56;;;;;;;4.10;3.30;;;;;;;;;;4941233;29;20439;-73
2021/04/12 06:06:25;;;;;;;3.72;3.33;;;;;;;;;;4955591;29;20240;-77
2021/04/12 06:09:15;;;;;;;4.50;4.07;;;;;;;;;;4952502;29;20208;-75
2021/04/12 06:11:44;;;;;;;5.10;4.45;;;;;;;;;;4936199;29;20172;-75
2021/04/12 06:14:19;;;;;;;4.95;4.55;;;;;;;;;;4944580;29;20215;-84
2021/04/12 06:17:00;;;;;;;5.38;4.93;;;;;;;;;;4928207;29;20187;-80
2021/04/12 06:19:26;;;;;;;6.07;5.53;;;;;;;;;;4947343;29;20597;-85
2021/04/12 06:22:10;;;;;;;6.03;5.43;;;;;;;;;;4949066;29;20290;-75
2021/04/12 06:24:55;;;;;;;6.10;5.60;;;;;;;;;;4937210;28;20452;-74
2021/04/12 06:27:21;;;;;;;6.57;6.00;;;;;;;;;;4938576;28;20720;-76
2021/04/12 06:29:50;;;;;;;6.07;5.35;;;;;;;;;;4918674;28;20327;-79
2021/04/12 06:32:19;;;;;;;6.32;5.30;;;;;;;;;;4935841;28;20215;-78
2021/04/12 06:35:07;;;;;;;7.10;6.43;;;;;;;;;;4933253;28;20219;-76
2021/04/12 06:37:42;;;;;;;7.57;6.57;;;;;;;;;;4935128;28;20674;-74
2021/04/12 06:40:27;;;;;;;7.15;5.95;;;;;;;;;;4933696;28;20187;-74
2021/04/12 06:43:12;;;;;;;7.78;6.97;;;;;;;;;;4933460;28;20199;-77
2021/04/12 06:45:56;;;;;;;8.85;6.72;;;;;;;;;;4934686;28;20214;-74
2021/04/12 06:48:41;;;;;;;8.02;6.70;;;;;;;;;;4935050;28;20813;-77
2021/04/12 06:51:16;;;;;;;7.20;6.00;;;;;;;;;;4938005;28;20177;-73
2021/04/12 06:54:01;;;;;;;7.88;6.68;;;;;;;;;;4935171;28;20188;-75
2021/04/12 06:56:46;;;;;;;6.82;5.88;;;;;;;;;;4931844;28;20247;-74
2021/04/12 06:59:20;;;;;;;8.48;6.55;;;;;;;;;;4933507;28;20216;-76
2021/04/12 07:02:01;;;;;;;7.85;6.45;;;;;;;;;;4934468;28;20178;-75
2021/04/12 07:04:30;;;;;;;6.45;5.72;;;;;;;;;;4938242;28;20251;-73
2021/04/12 07:06:59;;;;;;;7.32;6.03;;;;;;;;;;4933697;28;20194;-75
2021/04/12 07:09:43;;;;;;;7.35;5.80;;;;;;;;;;4936182;28;20271;-74
2021/04/12 07:12:18;;;;;;;6.80;5.53;;;;;;;;;;4933624;28;20306;-74
2021/04/12 07:15:10;;;;;;;10.55;5.40;;;;;;;;;;4935506;28;20231;-76
2021/04/12 07:17:45;;;;;;;6.03;5.15;;;;;;;;;;4923192;28;20336;-78
2021/04/12 07:20:30;;;;;;;9.15;7.05;;;;;;;;;;4934600;28;20196;-75
2021/04/12 07:23:03;;;;;;;8.90;6.88;;;;;;;;;;4933670;28;20192;-73
2021/04/12 07:25:32;;;;;;;8.23;6.45;;;;;;;;;;4930210;28;20196;-75
2021/04/12 07:28:04;;;;;;;8.05;6.50;;;;;;;;;;4934569;28;20537;-78
2021/04/12 07:30:53;;;;;;;8.45;7.32;;;;;;;;;;4936724;28;20196;-74
2021/04/12 07:33:28;;;;;;;7.50;6.70;;;;;;;;;;4938899;28;20188;-75
2021/04/12 07:36:14;;;;;;;11.70;7.55;;;;;;;;;;4937522;28;20275;-73
2021/04/12 07:38:59;;;;;;;7.78;6.47;;;;;;;;;;4935581;28;20559;-74
2021/04/12 07:41:44;;;;;;;10.68;8.00;;;;;;;;;;4937351;28;20258;-73
2021/04/12 07:44:19;;;;;;;9.23;7.75;;;;;;;;;;4934150;28;20202;-75
2021/04/12 07:47:03;;;;;;;10.40;7.97;;;;;;;;;;4937842;28;20203;-72
2021/04/12 07:49:48;;;;;;;9.75;8.80;;;;;;;;;;4937613;28;20267;-74
2021/04/12 07:52:32;;;;;;;9.32;8.00;;;;;;;;;;4932238;28;20184;-74
2021/04/12 07:55:01;;;;;;;11.55;8.65;;;;;;;;;;4931201;28;20218;-74
2021/04/12 07:57:46;;;;;;;10.98;8.52;;;;;;;;;;4927893;28;20232;-79
2021/04/12 08:00:31;;;;;;;11.10;8.82;;;;;;;;;;4955863;28;20239;-77
2021/04/12 08:03:16;;;;;;;14.02;11.45;;;;;;;;;;4951599;28;20201;-73
2021/04/12 08:06:01;;;;;;;10.63;9.25;;;;;;;;;;4951204;28;20199;-77
2021/04/12 08:08:56;;;;;;;14.35;11.38;;;;;;;;;;4950839;28;20191;-79
2021/04/12 08:11:43;;;;;;;14.23;11.15;;;;;;;;;;4934380;28;20218;-74
2021/04/12 08:14:27;;;;;;;12.80;10.10;;;;;;;;;;4949696;28;20585;-77
2021/04/12 08:17:12;;;;;;;12.98;9.90;;;;;;;;;;4950440;28;20204;-73
2021/04/12 08:19:47;;;;;;;11.40;10.00;;;;;;;;;;4951211;28;20183;-74
2021/04/12 08:22:26;;;;;;;13.57;10.25;;;;;;;;;;4949957;28;20247;-73
2021/04/12 08:24:55;;;;;;;15.13;10.82;;;;;;;;;;4951358;28;20186;-75
2021/04/12 08:27:36;;;;;;;13.75;11.32;;;;;;;;;;4950591;28;20189;-75
2021/04/12 08:30:14;;;;;;;11.73;9.80;;;;;;;;;;4960214;28;20200;-73
2021/04/12 08:32:59;;;;;;;16.48;10.70;;;;;;;;;;4962167;28;20197;-73
2021/04/12 08:35:25;;;;;;;13.52;10.35;;;;;;;;;;4942989;28;20219;-73
2021/04/12 08:38:10;;;;;;;10.88;8.52;;;;;;;;;;4958601;28;20193;-76
2021/04/12 08:40:55;;;;;;;11.70;10.50;;;;;;;;;;4939540;28;20193;-79
2021/04/12 08:43:33;;;;;;;11.75;9.75;;;;;;;;;;4961568;28;20191;-78
2021/04/12 08:46:03;;;;;;;13.10;10.52;;;;;;;;;;4956752;28;20194;-76
2021/04/12 08:48:44;;;;;;;10.70;9.60;;;;;;;;;;4946621;28;20187;-77
2021/04/12 08:51:16;;;;;;;10.35;9.13;;;;;;;;;;4942838;28;20186;-77
2021/04/12 08:54:01;;;;;;;10.52;9.50;;;;;;;;;;4963401;28;20186;-78
2021/04/12 08:56:27;;;;;;;10.75;9.75;;;;;;;;;;4958828;28;20237;-78
2021/04/12 08:59:12;;;;;;;11.55;10.45;;;;;;;;;;4941846;28;20273;-77
2021/04/12 09:01:56;;;;;;;12.32;9.68;;;;;;;;;;4939417;28;20645;-77
2021/04/12 09:04:37;;;;;;;13.18;8.63;;;;;;;;;;4941735;28;20530;-76
2021/04/12 09:07:15;;;;;;;10.18;8.45;;;;;;;;;;4948066;28;20198;-82
2021/04/12 09:09:50;;;;;;;9.18;8.20;;;;;;;;;;4935328;28;20195;-78
2021/04/12 09:12:35;;;;;;;12.45;8.00;;;;;;;;;;4941317;28;20190;-77
2021/04/12 09:15:04;;;;;;;11.18;8.27;;;;;;;;;;4921718;28;20218;-77
2021/04/12 09:17:33;;;;;;;10.13;8.60;;;;;;;;;;4936859;28;20235;-78
2021/04/12 09:20:06;;;;;;;8.95;8.05;;;;;;;;;;4934956;28;20187;-76
2021/04/12 09:22:58;;;;;;;9.82;8.00;;;;;;;;;;4938323;28;20179;-78
2021/04/12 09:25:33;;;;;;;10.48;8.07;;;;;;;;;;4933517;28;20218;-77
2021/04/12 09:28:18;;;;;;;14.60;7.72;;;;;;;;;;4935965;28;20302;-78
2021/04/12 09:31:03;;;;;;;7.60;6.80;;;;;;;;;;4938331;28;20200;-78
2021/04/12 09:33:48;;;;;;;7.47;6.50;;;;;;;;;;4938795;28;20227;-75
2021/04/12 09:36:17;;;;;;;7.78;5.85;;;;;;;;;;4935320;28;20219;-78
2021/04/12 09:38:49;;;;;;;6.75;6.05;;;;;;;;;;4919572;28;20207;-76
2021/04/12 09:41:34;;;;;;;11.50;5.88;;;;;;;;;;4936356;28;20198;-77
2021/04/12 09:44:15;;;;;;;7.50;6.10;;;;;;;;;;4936879;28;20188;-78
2021/04/12 09:46:50;;;;;;;9.52;6.03;;;;;;;;;;4920982;28;20185;-77
2021/04/12 09:49:35;;;;;;;5.32;4.82;;;;;;;;;;4935487;28;20199;-78
2021/04/12 09:52:01;;;;;;;6.65;5.53;;;;;;;;;;4936833;28;20536;-77
2021/04/12 09:54:45;;;;;;;5.63;5.15;;;;;;;;;;4938569;28;20717;-77
2021/04/12 09:57:40;;;;;;;5.32;4.82;;;;;;;;;;4933627;28;20291;-78
2021/04/12 10:00:06;;;;;;;6.40;5.00;;;;;;;;;;4940835;28;20191;-77
2021/04/12 10:02:41;;;;;;;4.40;4.00;;;;;;;;;;4940841;28;20201;-76
2021/04/12 10:05:26;;;;;;;5.30;4.80;;;;;;;;;;4935414;28;20447;-75
2021/04/12 10:07:58;;;;;;;6.63;5.97;;;;;;;;;;4934599;28;20758;-77
2021/04/12 10:10:43;;;;;;;6.30;4.88;;;;;;;;;;4932672;28;20198;-73
2021/04/12 10:13:21;;;;;;;5.95;4.43;;;;;;;;;;4932511;28;20552;-80
2021/04/12 10:15:50;;;;;;;6.63;4.07;;;;;;;;;;4933080;28;20229;-74
2021/04/12 10:18:22;;;;;;;4.82;4.32;;;;;;;;;;4933249;28;20212;-73
2021/04/12 10:20:57;;;;;;;5.60;4.90;;;;;;;;;;4935795;28;20186;-72
2021/04/12 10:23:27;;;;;;;10.13;4.85;;;;;;;;;;4939955;28;20274;-79
2021/04/12 10:25:59;;;;;;;5.25;3.50;;;;;;;;;;4935141;28;20255;-78
2021/04/12 10:28:35;;;;;;;4.25;3.75;;;;;;;;;;4932495;28;20200;-77
2021/04/12 10:31:07;;;;;;;3.92;3.53;;;;;;;;;;4939057;28;20237;-77
2021/04/12 10:33:41;;;;;;;6.15;3.40;;;;;;;;;;4940288;28;20635;-76
2021/04/12 10:36:11;;;;;;;4.40;3.38;;;;;;;;;;4941292;29;20192;-78
2021/04/12 10:38:39;;;;;;;4.87;4.37;;;;;;;;;;4922900;29;20200;-76
2021/04/12 10:41:24;;;;;;;5.20;4.70;;;;;;;;;;4939790;29;20451;-78
2021/04/12 10:43:54;;;;;;;3.83;3.35;;;;;;;;;;4934106;28;20715;-78
2021/04/12 10:46:30;;;;;;;6.57;4.07;;;;;;;;;;4935907;29;20250;-83
2021/04/12 10:49:11;;;;;;;5.65;2.60;;;;;;;;;;4935922;29;20271;-79
2021/04/12 10:51:41;;;;;;;5.20;3.20;;;;;;;;;;4941478;29;20184;-82
2021/04/12 10:54:18;;;;;;;4.83;2.90;;;;;;;;;;4937535;28;20297;-74
2021/04/12 10:56:46;;;;;;;3.50;3.07;;;;;;;;;;4933107;29;21032;-76
2021/04/12 10:59:27;;;;;;;2.67;2.47;;;;;;;;;;4937632;29;20431;-74
2021/04/12 11:02:19;;;;;;;3.73;2.93;;;;;;;;;;4934916;29;20527;-77
2021/04/12 11:04:49;;;;;;;3.25;2.95;;;;;;;;;;4933549;29;20438;-73
2021/04/12 11:07:15;;;;;;;3.50;2.67;;;;;;;;;;4934019;29;20173;-75
2021/04/12 11:09:41;;;;;;;3.37;2.63;;;;;;;;;;4916538;29;20436;-72
2021/04/12 11:12:26;;;;;;;3.23;2.97;;;;;;;;;;4934964;29;20550;-73
2021/04/12 11:14:55;;;;;;;4.83;2.00;;;;;;;;;;4933007;29;20487;-76
2021/04/12 11:17:40;;;;;;;4.40;3.47;;;;;;;;;;4936917;29;20451;-76
2021/04/12 11:20:09;;;;;;;3.20;2.87;;;;;;;;;;4939263;28;20483;-80
2021/04/12 11:22:44;;;;;;;5.53;3.07;;;;;;;;;;4934051;29;20495;-77
2021/04/12 11:25:11;;;;;;;4.77;3.37;;;;;;;;;;4934166;29;20435;-83
2021/04/12 11:27:53;;;;;;;2.80;2.60;;;;;;;;;;4938707;29;20429;-78
2021/04/12 11:30:29;;;;;;;4.53;2.87;;;;;;;;;;4949604;29;20474;-80
2021/04/12 11:33:15;;;;;;;3.17;2.70;;;;;;;;;;4925547;29;20440;-75
2021/04/12 11:36:16;;;;;;;3.37;2.50;;;;;;;;;;4947511;29;20483;-85
2021/04/12 11:39:04;;;;;;;4.93;3.43;;;;;;;;;;4865880;29;20451;-80
2021/04/12 11:41:37;;;;;;;2.50;2.30;;;;;;;;;;4936264;29;20444;-74
2021/04/12 11:44:07;;;;;;;3.63;2.83;;;;;;;;;;4941480;29;20535;-75
2021/04/12 11:46:54;;;;;;;3.05;2.75;;;;;;;;;;4938613;28;20995;-80
2021/04/12 11:49:26;;;;;;;4.87;3.33;;;;;;;;;;4912703;29;20678;-78
2021/04/12 11:51:52;;;;;;;2.50;1.93;;;;;;;;;;4941857;29;20504;-78
2021/04/12 11:54:26;;;;;;;3.80;2.63;;;;;;;;;;4937320;29;20474;-77
2021/04/12 11:57:21;;;;;;;3.40;2.40;;;;;;;;;;4934817;29;20471;-80
2021/04/12 12:00:02;;;;;;;8.30;3.37;;;;;;;;;;4884124;29;20454;-77
2021/04/12 12:02:46;;;;;;;3.20;2.40;;;;;;;;;;4935347;29;20467;-76
2021/04/12 12:05:19;;;;;;;2.93;2.20;;;;;;;;;;4935245;29;20455;-75
2021/04/12 12:07:56;;;;;;;4.30;3.30;;;;;;;;;;4935341;29;20475;-77
2021/04/12 12:10:40;;;;;;;4.03;2.30;;;;;;;;;;4940109;29;20967;-76
2021/04/12 12:13:09;;;;;;;4.70;2.87;;;;;;;;;;4919306;29;20469;-80
2021/04/12 12:15:35;;;;;;;2.08;1.90;;;;;;;;;;4919701;29;20486;-77
2021/04/12 12:18:04;;;;;;;4.43;2.40;;;;;;;;;;4939754;29;20172;-80
2021/04/12 12:20:36;;;;;;;3.23;1.87;;;;;;;;;;4938711;29;20788;-75
2021/04/12 12:23:02;;;;;;;3.47;2.10;;;;;;;;;;4938761;29;20428;-79
2021/04/12 12:25:40;;;;;;;2.60;2.40;;;;;;;;;;4938824;29;20816;-78
2021/04/12 12:28:18;;;;;;;3.57;2.27;;;;;;;;;;4938829;29;20431;-78
2021/04/12 12:31:03;;;;;;;3.47;1.77;;;;;;;;;;4938443;29;20819;-76
2021/04/12 12:33:37;;;;;;;2.90;2.00;;;;;;;;;;4938548;29;20424;-78
2021/04/12 12:36:19;;;;;;;3.10;1.90;;;;;;;;;;4938248;29;20528;-80
2021/04/12 12:39:04;;;;;;;1.60;1.50;;;;;;;;;;4938177;29;20432;-77
2021/04/12 12:41:34;;;;;;;2.37;1.70;;;;;;;;;;4937608;29;20448;-80
2021/04/12 12:44:04;;;;;;;2.70;1.93;;;;;;;;;;4938298;29;20427;-80
2021/04/12 12:46:32;;;;;;;2.80;2.00;;;;;;;;;;4938172;29;21028;-81
2021/04/12 12:49:16;;;;;;;3.70;1.90;;;;;;;;;;4938315;29;20460;-78
2021/04/12 12:51:51;;;;;;;2.63;2.13;;;;;;;;;;4938291;29;20839;-81
2021/04/12 12:54:29;;;;;;;1.90;1.77;;;;;;;;;;4937623;29;20467;-77
2021/04/12 12:57:04;;;;;;;3.20;2.17;;;;;;;;;;4927454;29;20479;-79
2021/04/12 12:59:34;;;;;;;2.03;1.63;;;;;;;;;;4957012;29;20477;-79
2021/04/12 13:02:11;;;;;;;3.10;2.03;;;;;;;;;;4957168;29;20435;-80
2021/04/12 13:04:36;;;;;;;1.70;1.60;;;;;;;;;;4957350;29;20505;-78
2021/04/12 13:07:13;;;;;;;1.73;1.63;;;;;;;;;;4957157;29;20881;-75
2021/04/12 13:09:52;;;;;;;2.07;1.87;;;;;;;;;;4957323;29;20419;-75
2021/04/12 13:12:18;;;;;;;3.90;1.57;;;;;;;;;;4956427;29;20839;-78
2021/04/12 13:14:51;;;;;;;2.30;1.80;;;;;;;;;;4959787;28;20512;-76
2021/04/12 13:17:37;;;;;;;1.80;1.67;;;;;;;;;;4976210;28;20427;-75
2021/04/12 13:20:03;;;;;;;1.90;1.80;;;;;;;;;;4976149;28;20427;-78
2021/04/12 13:22:35;;;;;;;3.50;1.80;;;;;;;;;;4976202;28;20427;-74
2021/04/12 13:25:24;;;;;;;3.10;1.80;;;;;;;;;;4958573;28;20479;-74
2021/04/12 13:27:54;;;;;;;2.10;1.90;;;;;;;;;;4965283;28;20447;-78
2021/04/12 13:30:22;;;;;;;7.90;1.43;;;;;;;;;;4975777;28;20450;-77
2021/04/12 13:32:52;;;;;;;5.47;1.57;;;;;;;;;;4975119;28;20454;-76
2021/04/12 13:35:20;;;;;;;5.00;2.07;;;;;;;;;;4975715;28;20501;-81
2021/04/12 13:37:49;;;;;;;3.30;1.63;;;;;;;;;;4975956;28;20455;-74
2021/04/12 13:40:27;;;;;;;2.80;1.70;;;;;;;;;;4975336;28;20483;-75
2021/04/12 13:42:54;;;;;;;1.90;1.33;;;;;;;;;;4975634;28;20505;-77
2021/04/12 13:45:29;;;;;;;1.80;1.70;;;;;;;;;;4975470;28;20444;-79
2021/04/12 13:47:58;;;;;;;3.50;1.77;;;;;;;;;;4975451;28;20985;-78
2021/04/12 13:50:26;;;;;;;2.47;1.53;;;;;;;;;;4973627;28;20785;-75
2021/04/12 13:52:52;;;;;;;1.47;1.20;;;;;;;;;;4966260;28;20546;-76
2021/04/12 13:55:23;;;;;;;4.20;1.63;;;;;;;;;;4961751;28;20580;-75
2021/04/12 13:57:53;;;;;;;3.30;1.90;;;;;;;;;;4942775;28;20491;-77
2021/04/12 14:00:30;;;;;;;1.37;1.23;;;;;;;;;;4943451;29;20810;-73
2021/04/12 14:02:56;;;;;;;1.40;1.30;;;;;;;;;;4951472;28;20454;-76
2021/04/12 14:05:27;;;;;;;2.23;1.40;;;;;;;;;;4946159;28;20214;-81
2021/04/12 14:08:02;;;;;;;4.53;1.63;;;;;;;;;;4930671;29;20777;-74
2021/04/12 14:10:36;;;;;;;1.77;1.67;;;;;;;;;;4942965;29;20441;-76
2021/04/12 14:13:05;;;;;;;2.20;1.63;;;;;;;;;;4941768;29;20431;-81
2021/04/12 14:15:50;;;;;;;2.03;1.43;;;;;;;;;;4942326;29;20495;-79
2021/04/12 14:18:24;;;;;;;3.20;1.63;;;;;;;;;;4942660;29;20436;-79
2021/04/12 14:20:51;;;;;;;2.10;1.87;;;;;;;;;;4942545;29;20911;-79
2021/04/12 14:23:22;;;;;;;2.00;1.67;;;;;;;;;;4945469;29;20439;-81
2021/04/12 14:26:23;;;;;;;1.90;1.50;;;;;;;;;;4944300;29;20471;-80
2021/04/12 14:28:51;;;;;;;1.53;1.30;;;;;;;;;;4865114;29;20894;-77
2021/04/12 14:31:22;;;;;;;1.43;1.33;;;;;;;;;;4922726;29;20535;-75
2021/04/12 14:33:50;;;;;;;1.47;1.37;;;;;;;;;;4936064;29;20445;-80
2021/04/12 14:36:22;;;;;;;1.80;1.70;;;;;;;;;;4937242;29;20915;-76
2021/04/12 14:38:49;;;;;;;1.50;1.40;;;;;;;;;;4936649;29;20448;-80
2021/04/12 14:41:27;;;;;;;2.00;1.57;;;;;;;;;;4934674;29;20531;-79
2021/04/12 14:43:57;;;;;;;2.60;1.90;;;;;;;;;;4939626;29;20451;-78
2021/04/12 14:46:24;;;;;;;2.00;1.53;;;;;;;;;;4933451;29;20452;-78
2021/04/12 14:48:53;;;;;;;1.63;1.53;;;;;;;;;;4936034;29;20456;-74
2021/04/12 14:51:21;;;;;;;2.00;1.90;;;;;;;;;;4933723;29;20445;-79
2021/04/12 14:54:06;;;;;;;1.50;1.40;;;;;;;;;;4938517;29;20483;-76
2021/04/12 14:56:40;;;;;;;1.40;1.30;;;;;;;;;;4955292;28;20515;-80
2021/04/12 14:59:07;;;;;;;3.43;1.60;;;;;;;;;;4937749;28;20478;-75
2021/04/12 15:01:49;;;;;;;1.70;1.23;;;;;;;;;;4954506;29;20440;-88
2021/04/12 15:04:23;;;;;;;5.17;2.30;;;;;;;;;;4924794;29;20617;-77
2021/04/12 15:07:08;;;;;;;1.93;1.70;;;;;;;;;;4943510;28;20515;-77
2021/04/12 15:09:36;;;;;;;1.73;1.63;;;;;;;;;;4942704;29;21015;-79
2021/04/12 15:12:04;;;;;;;6.63;3.37;;;;;;;;;;4939218;29;20482;-73
2021/04/12 15:14:49;;;;;;;2.80;1.60;;;;;;;;;;4950388;29;20562;-79
2021/04/12 15:17:19;;;;;;;2.60;1.33;;;;;;;;;;4939478;29;21018;-75
2021/04/12 15:20:01;;;;;;;3.40;1.83;;;;;;;;;;4940695;29;20447;-78
2021/04/12 15:22:39;;;;;;;2.90;1.50;;;;;;;;;;4941636;29;20474;-77
2021/04/12 15:25:10;;;;;;;2.10;1.50;;;;;;;;;;4954559;29;20469;-76
2021/04/12 15:27:37;;;;;;;2.20;2.10;;;;;;;;;;4948906;29;20441;-75
2021/04/12 15:30:08;;;;;;;1.87;1.63;;;;;;;;;;4942215;29;20446;-78
2021/04/12 15:32:48;;;;;;;4.20;1.70;;;;;;;;;;4941772;29;20848;-80
2021/04/12 15:35:14;;;;;;;1.73;1.60;;;;;;;;;;4954170;29;20568;-77
2021/04/12 15:37:43;;;;;;;2.43;1.77;;;;;;;;;;4939319;28;20531;-76